sensor_id;sensor_type;location;lat;lon;timestamp;P1;durP1;ratioP1;P2;durP2;ratioP2
38859;SDS011;24609;48.316;16.174;2023-02-10T00:01:06;4.70;;;3.15;;
38859;SDS011;24609;48.316;16.174;2023-02-10T00:03:32;8.80;;;4.60;;
38859;SDS011;24609;48.316;16.174;2023-02-10T00:05:59;8.55;;;4.28;;
38859;SDS011;24609;48.316;16.174;2023-02-10T00:08:25;16.13;;;6.00;;
38859;SDS011;24609;48.316;16.174;2023-02-10T00:10:51;10.80;;;5.03;;
38859;SDS011;24609;48.316;16.174;2023-02-10T00:13:20;16.77;;;4.70;;
38859;SDS011;24609;48.316;16.174;2023-02-10T00:15:46;11.40;;;6.20;;
38859;SDS011;24609;48.316;16.174;2023-02-10T00:18:12;8.43;;;5.70;;
38859;SDS011;24609;48.316;16.174;2023-02-10T00:20:37;10.52;;;5.80;;
38859;SDS011;24609;48.316;16.174;2023-02-10T00:23:03;11.10;;;3.92;;
38859;SDS011;24609;48.316;16.174;2023-02-10T00:25:29;5.35;;;3.63;;
38859;SDS011;24609;48.316;16.174;2023-02-10T00:27:55;9.32;;;3.25;;
38859;SDS011;24609;48.316;16.174;2023-02-10T00:30:21;11.23;;;3.20;;
38859;SDS011;24609;48.316;16.174;2023-02-10T00:32:46;4.78;;;3.35;;
38859;SDS011;24609;48.316;16.174;2023-02-10T00:35:12;7.07;;;4.13;;
38859;SDS011;24609;48.316;16.174;2023-02-10T00:37:37;4.47;;;3.28;;
38859;SDS011;24609;48.316;16.174;2023-02-10T00:40:03;7.88;;;3.47;;
38859;SDS011;24609;48.316;16.174;2023-02-10T00:42:29;6.97;;;3.72;;
38859;SDS011;24609;48.316;16.174;2023-02-10T00:44:55;3.67;;;2.38;;
38859;SDS011;24609;48.316;16.174;2023-02-10T00:47:20;7.30;;;3.55;;
38859;SDS011;24609;48.316;16.174;2023-02-10T00:49:48;10.80;;;3.28;;
38859;SDS011;24609;48.316;16.174;2023-02-10T00:52:14;4.88;;;3.55;;
38859;SDS011;24609;48.316;16.174;2023-02-10T00:54:39;6.28;;;3.92;;
38859;SDS011;24609;48.316;16.174;2023-02-10T00:57:05;9.40;;;4.95;;
38859;SDS011;24609;48.316;16.174;2023-02-10T00:59:31;10.07;;;4.22;;
38859;SDS011;24609;48.316;16.174;2023-02-10T01:01:56;8.75;;;3.25;;
38859;SDS011;24609;48.316;16.174;2023-02-10T01:04:23;5.43;;;2.97;;
38859;SDS011;24609;48.316;16.174;2023-02-10T01:06:48;10.32;;;5.25;;
38859;SDS011;24609;48.316;16.174;2023-02-10T01:09:14;5.88;;;3.10;;
38859;SDS011;24609;48.316;16.174;2023-02-10T01:11:39;7.57;;;3.25;;
38859;SDS011;24609;48.316;16.174;2023-02-10T01:14:05;8.85;;;3.92;;
38859;SDS011;24609;48.316;16.174;2023-02-10T01:16:31;7.15;;;3.78;;
38859;SDS011;24609;48.316;16.174;2023-02-10T01:18:57;17.30;;;4.25;;
38859;SDS011;24609;48.316;16.174;2023-02-10T01:21:24;8.45;;;5.85;;
38859;SDS011;24609;48.316;16.174;2023-02-10T01:23:50;7.93;;;4.00;;
38859;SDS011;24609;48.316;16.174;2023-02-10T01:26:16;8.23;;;5.05;;
38859;SDS011;24609;48.316;16.174;2023-02-10T01:28:42;9.43;;;4.13;;
38859;SDS011;24609;48.316;16.174;2023-02-10T01:31:12;7.90;;;4.25;;
38859;SDS011;24609;48.316;16.174;2023-02-10T01:33:45;5.82;;;2.55;;
38859;SDS011;24609;48.316;16.174;2023-02-10T01:36:12;8.88;;;3.97;;
38859;SDS011;24609;48.316;16.174;2023-02-10T01:38:39;12.50;;;4.47;;
38859;SDS011;24609;48.316;16.174;2023-02-10T01:41:06;12.40;;;4.70;;
38859;SDS011;24609;48.316;16.174;2023-02-10T01:43:33;3.75;;;3.45;;
38859;SDS011;24609;48.316;16.174;2023-02-10T01:46:17;7.70;;;3.35;;
38859;SDS011;24609;48.316;16.174;2023-02-10T01:48:43;7.00;;;3.75;;
38859;SDS011;24609;48.316;16.174;2023-02-10T01:51:08;8.75;;;3.55;;
38859;SDS011;24609;48.316;16.174;2023-02-10T01:53:34;5.20;;;2.97;;
38859;SDS011;24609;48.316;16.174;2023-02-10T01:56:00;6.18;;;2.92;;
38859;SDS011;24609;48.316;16.174;2023-02-10T01:58:29;8.20;;;3.40;;
38859;SDS011;24609;48.316;16.174;2023-02-10T02:00:58;3.17;;;2.55;;
38859;SDS011;24609;48.316;16.174;2023-02-10T02:03:24;5.50;;;3.47;;
38859;SDS011;24609;48.316;16.174;2023-02-10T02:05:51;3.78;;;2.90;;
38859;SDS011;24609;48.316;16.174;2023-02-10T02:32:27;8.65;;;2.95;;
38859;SDS011;24609;48.316;16.174;2023-02-10T02:37:29;4.53;;;2.15;;
38859;SDS011;24609;48.316;16.174;2023-02-10T02:39:58;3.10;;;1.88;;
38859;SDS011;24609;48.316;16.174;2023-02-10T02:42:24;4.30;;;3.33;;
38859;SDS011;24609;48.316;16.174;2023-02-10T02:45:02;2.78;;;1.90;;
38859;SDS011;24609;48.316;16.174;2023-02-10T02:47:42;11.10;;;3.67;;
38859;SDS011;24609;48.316;16.174;2023-02-10T03:01:30;8.52;;;3.60;;
38859;SDS011;24609;48.316;16.174;2023-02-10T03:04:01;11.73;;;5.00;;
38859;SDS011;24609;48.316;16.174;2023-02-10T03:06:28;4.72;;;2.20;;
38859;SDS011;24609;48.316;16.174;2023-02-10T03:08:54;6.63;;;4.22;;
38859;SDS011;24609;48.316;16.174;2023-02-10T03:11:20;5.43;;;3.35;;
38859;SDS011;24609;48.316;16.174;2023-02-10T03:13:46;10.20;;;5.93;;
38859;SDS011;24609;48.316;16.174;2023-02-10T03:16:11;6.75;;;3.80;;
38859;SDS011;24609;48.316;16.174;2023-02-10T03:18:37;6.40;;;3.78;;
38859;SDS011;24609;48.316;16.174;2023-02-10T03:21:03;5.75;;;3.65;;
38859;SDS011;24609;48.316;16.174;2023-02-10T03:23:29;8.45;;;3.97;;
38859;SDS011;24609;48.316;16.174;2023-02-10T03:25:56;3.75;;;3.17;;
38859;SDS011;24609;48.316;16.174;2023-02-10T03:28:23;5.68;;;3.60;;
38859;SDS011;24609;48.316;16.174;2023-02-10T03:30:49;4.05;;;2.13;;
38859;SDS011;24609;48.316;16.174;2023-02-10T03:33:15;5.78;;;3.55;;
38859;SDS011;24609;48.316;16.174;2023-02-10T03:35:42;7.75;;;4.10;;
38859;SDS011;24609;48.316;16.174;2023-02-10T03:38:08;3.83;;;2.58;;
38859;SDS011;24609;48.316;16.174;2023-02-10T03:40:34;4.78;;;2.28;;
38859;SDS011;24609;48.316;16.174;2023-02-10T03:43:00;5.63;;;3.97;;
38859;SDS011;24609;48.316;16.174;2023-02-10T03:45:26;5.32;;;3.20;;
38859;SDS011;24609;48.316;16.174;2023-02-10T03:47:52;9.80;;;3.35;;
38859;SDS011;24609;48.316;16.174;2023-02-10T03:50:17;9.32;;;3.83;;
38859;SDS011;24609;48.316;16.174;2023-02-10T03:52:43;3.95;;;3.05;;
38859;SDS011;24609;48.316;16.174;2023-02-10T03:55:08;6.63;;;3.47;;
38859;SDS011;24609;48.316;16.174;2023-02-10T03:57:38;5.55;;;3.72;;
38859;SDS011;24609;48.316;16.174;2023-02-10T04:00:04;6.07;;;2.55;;
38859;SDS011;24609;48.316;16.174;2023-02-10T04:02:31;7.25;;;2.88;;
38859;SDS011;24609;48.316;16.174;2023-02-10T04:04:56;9.27;;;3.03;;
38859;SDS011;24609;48.316;16.174;2023-02-10T04:07:22;4.97;;;3.72;;
38859;SDS011;24609;48.316;16.174;2023-02-10T04:09:47;3.28;;;2.63;;
38859;SDS011;24609;48.316;16.174;2023-02-10T04:12:13;5.82;;;3.42;;
38859;SDS011;24609;48.316;16.174;2023-02-10T04:14:39;3.55;;;3.25;;
38859;SDS011;24609;48.316;16.174;2023-02-10T04:17:04;3.38;;;2.45;;
38859;SDS011;24609;48.316;16.174;2023-02-10T04:19:30;12.80;;;3.10;;
38859;SDS011;24609;48.316;16.174;2023-02-10T04:21:56;6.22;;;2.53;;
38859;SDS011;24609;48.316;16.174;2023-02-10T04:24:21;3.45;;;2.75;;
38859;SDS011;24609;48.316;16.174;2023-02-10T04:26:47;5.15;;;2.97;;
38859;SDS011;24609;48.316;16.174;2023-02-10T04:29:13;3.85;;;2.45;;
38859;SDS011;24609;48.316;16.174;2023-02-10T04:31:38;15.82;;;6.65;;
38859;SDS011;24609;48.316;16.174;2023-02-10T04:34:04;3.33;;;2.22;;
38859;SDS011;24609;48.316;16.174;2023-02-10T04:36:30;6.97;;;2.97;;
38859;SDS011;24609;48.316;16.174;2023-02-10T04:38:55;7.97;;;4.45;;
38859;SDS011;24609;48.316;16.174;2023-02-10T04:41:21;3.75;;;2.97;;
38859;SDS011;24609;48.316;16.174;2023-02-10T04:43:47;8.95;;;4.70;;
38859;SDS011;24609;48.316;16.174;2023-02-10T04:46:12;7.10;;;2.92;;
38859;SDS011;24609;48.316;16.174;2023-02-10T04:48:38;4.93;;;3.20;;
38859;SDS011;24609;48.316;16.174;2023-02-10T04:51:11;5.07;;;4.22;;
38859;SDS011;24609;48.316;16.174;2023-02-10T04:53:37;5.93;;;3.33;;
38859;SDS011;24609;48.316;16.174;2023-02-10T04:56:04;14.50;;;4.78;;
38859;SDS011;24609;48.316;16.174;2023-02-10T04:58:31;3.13;;;2.80;;
38859;SDS011;24609;48.316;16.174;2023-02-10T05:00:56;7.50;;;2.35;;
38859;SDS011;24609;48.316;16.174;2023-02-10T05:03:22;4.10;;;2.92;;
38859;SDS011;24609;48.316;16.174;2023-02-10T05:05:49;2.65;;;2.40;;
38859;SDS011;24609;48.316;16.174;2023-02-10T05:08:16;8.07;;;3.35;;
38859;SDS011;24609;48.316;16.174;2023-02-10T05:10:46;6.03;;;3.27;;
38859;SDS011;24609;48.316;16.174;2023-02-10T05:13:12;3.40;;;3.05;;
38859;SDS011;24609;48.316;16.174;2023-02-10T05:15:38;3.97;;;2.38;;
38859;SDS011;24609;48.316;16.174;2023-02-10T05:18:04;6.18;;;3.30;;
38859;SDS011;24609;48.316;16.174;2023-02-10T05:20:29;2.78;;;1.77;;
38859;SDS011;24609;48.316;16.174;2023-02-10T05:22:55;8.35;;;3.58;;
38859;SDS011;24609;48.316;16.174;2023-02-10T05:25:21;2.30;;;1.80;;
38859;SDS011;24609;48.316;16.174;2023-02-10T05:27:46;6.38;;;3.08;;
38859;SDS011;24609;48.316;16.174;2023-02-10T05:30:12;4.78;;;3.30;;
38859;SDS011;24609;48.316;16.174;2023-02-10T05:32:39;2.50;;;2.28;;
38859;SDS011;24609;48.316;16.174;2023-02-10T05:35:05;6.00;;;3.97;;
38859;SDS011;24609;48.316;16.174;2023-02-10T05:37:31;4.45;;;3.88;;
38859;SDS011;24609;48.316;16.174;2023-02-10T05:39:57;4.03;;;2.13;;
38859;SDS011;24609;48.316;16.174;2023-02-10T05:42:23;3.45;;;2.33;;
38859;SDS011;24609;48.316;16.174;2023-02-10T05:44:48;4.30;;;3.15;;
38859;SDS011;24609;48.316;16.174;2023-02-10T05:47:14;8.73;;;2.95;;
38859;SDS011;24609;48.316;16.174;2023-02-10T05:49:40;7.03;;;2.85;;
38859;SDS011;24609;48.316;16.174;2023-02-10T05:52:05;7.65;;;3.50;;
38859;SDS011;24609;48.316;16.174;2023-02-10T05:54:31;8.30;;;3.40;;
38859;SDS011;24609;48.316;16.174;2023-02-10T05:56:58;6.15;;;3.03;;
38859;SDS011;24609;48.316;16.174;2023-02-10T05:59:23;4.63;;;2.50;;
38859;SDS011;24609;48.316;16.174;2023-02-10T06:01:49;7.70;;;3.65;;
38859;SDS011;24609;48.316;16.174;2023-02-10T06:04:15;4.45;;;2.58;;
38859;SDS011;24609;48.316;16.174;2023-02-10T06:06:41;5.90;;;2.35;;
38859;SDS011;24609;48.316;16.174;2023-02-10T06:09:06;2.60;;;2.03;;
38859;SDS011;24609;48.316;16.174;2023-02-10T06:11:32;6.60;;;2.72;;
38859;SDS011;24609;48.316;16.174;2023-02-10T06:13:58;5.00;;;3.22;;
38859;SDS011;24609;48.316;16.174;2023-02-10T06:16:24;11.00;;;2.22;;
38859;SDS011;24609;48.316;16.174;2023-02-10T06:18:50;2.75;;;2.33;;
38859;SDS011;24609;48.316;16.174;2023-02-10T06:21:15;2.03;;;1.77;;
38859;SDS011;24609;48.316;16.174;2023-02-10T06:23:42;3.33;;;2.33;;
38859;SDS011;24609;48.316;16.174;2023-02-10T06:26:08;2.22;;;1.90;;
38859;SDS011;24609;48.316;16.174;2023-02-10T06:28:34;10.77;;;3.50;;
38859;SDS011;24609;48.316;16.174;2023-02-10T06:30:59;3.90;;;2.35;;
38859;SDS011;24609;48.316;16.174;2023-02-10T06:33:25;2.80;;;2.05;;
38859;SDS011;24609;48.316;16.174;2023-02-10T06:35:51;2.35;;;1.80;;
38859;SDS011;24609;48.316;16.174;2023-02-10T06:38:16;3.20;;;2.90;;
38859;SDS011;24609;48.316;16.174;2023-02-10T06:40:42;5.53;;;3.05;;
38859;SDS011;24609;48.316;16.174;2023-02-10T06:43:10;5.20;;;3.35;;
38859;SDS011;24609;48.316;16.174;2023-02-10T06:45:35;2.95;;;2.05;;
38859;SDS011;24609;48.316;16.174;2023-02-10T06:48:01;8.70;;;3.25;;
38859;SDS011;24609;48.316;16.174;2023-02-10T06:50:27;5.65;;;2.22;;
38859;SDS011;24609;48.316;16.174;2023-02-10T06:52:53;4.63;;;2.55;;
38859;SDS011;24609;48.316;16.174;2023-02-10T06:55:19;7.32;;;2.85;;
38859;SDS011;24609;48.316;16.174;2023-02-10T06:57:45;6.50;;;2.88;;
38859;SDS011;24609;48.316;16.174;2023-02-10T07:00:11;7.47;;;2.65;;
38859;SDS011;24609;48.316;16.174;2023-02-10T07:02:38;4.75;;;2.08;;
38859;SDS011;24609;48.316;16.174;2023-02-10T07:05:06;3.33;;;2.50;;
38859;SDS011;24609;48.316;16.174;2023-02-10T07:07:35;5.32;;;2.88;;
38859;SDS011;24609;48.316;16.174;2023-02-10T07:10:01;5.65;;;2.97;;
38859;SDS011;24609;48.316;16.174;2023-02-10T07:12:27;5.07;;;2.72;;
38859;SDS011;24609;48.316;16.174;2023-02-10T07:14:53;4.13;;;2.92;;
38859;SDS011;24609;48.316;16.174;2023-02-10T07:17:19;6.07;;;3.08;;
38859;SDS011;24609;48.316;16.174;2023-02-10T07:19:45;11.02;;;3.50;;
38859;SDS011;24609;48.316;16.174;2023-02-10T07:22:11;4.60;;;3.58;;
38859;SDS011;24609;48.316;16.174;2023-02-10T07:24:36;7.40;;;4.78;;
38859;SDS011;24609;48.316;16.174;2023-02-10T07:27:03;4.93;;;2.85;;
38859;SDS011;24609;48.316;16.174;2023-02-10T07:29:29;12.43;;;4.53;;
38859;SDS011;24609;48.316;16.174;2023-02-10T07:31:55;5.22;;;3.75;;
38859;SDS011;24609;48.316;16.174;2023-02-10T07:34:23;9.55;;;3.55;;
38859;SDS011;24609;48.316;16.174;2023-02-10T07:36:49;7.90;;;4.45;;
38859;SDS011;24609;48.316;16.174;2023-02-10T07:39:21;10.05;;;5.40;;
38859;SDS011;24609;48.316;16.174;2023-02-10T07:41:47;10.45;;;4.75;;
38859;SDS011;24609;48.316;16.174;2023-02-10T07:44:13;11.48;;;5.78;;
38859;SDS011;24609;48.316;16.174;2023-02-10T07:46:39;9.85;;;5.18;;
38859;SDS011;24609;48.316;16.174;2023-02-10T07:49:05;11.07;;;5.43;;
38859;SDS011;24609;48.316;16.174;2023-02-10T07:51:31;12.30;;;5.78;;
38859;SDS011;24609;48.316;16.174;2023-02-10T07:53:57;9.38;;;5.15;;
38859;SDS011;24609;48.316;16.174;2023-02-10T07:56:22;10.10;;;4.72;;
38859;SDS011;24609;48.316;16.174;2023-02-10T07:58:48;9.98;;;5.85;;
38859;SDS011;24609;48.316;16.174;2023-02-10T08:01:14;12.30;;;6.15;;
38859;SDS011;24609;48.316;16.174;2023-02-10T08:03:39;11.55;;;6.85;;
38859;SDS011;24609;48.316;16.174;2023-02-10T08:06:05;11.85;;;6.10;;
38859;SDS011;24609;48.316;16.174;2023-02-10T08:08:31;15.45;;;7.18;;
38859;SDS011;24609;48.316;16.174;2023-02-10T08:10:57;22.05;;;9.48;;
38859;SDS011;24609;48.316;16.174;2023-02-10T08:13:23;12.07;;;5.80;;
38859;SDS011;24609;48.316;16.174;2023-02-10T08:15:49;22.50;;;7.82;;
38859;SDS011;24609;48.316;16.174;2023-02-10T08:18:15;16.15;;;6.68;;
38859;SDS011;24609;48.316;16.174;2023-02-10T08:20:41;12.32;;;6.53;;
38859;SDS011;24609;48.316;16.174;2023-02-10T08:23:07;13.88;;;7.45;;
38859;SDS011;24609;48.316;16.174;2023-02-10T08:25:39;14.35;;;8.07;;
38859;SDS011;24609;48.316;16.174;2023-02-10T08:28:04;20.90;;;8.13;;
38859;SDS011;24609;48.316;16.174;2023-02-10T08:30:30;13.25;;;7.85;;
38859;SDS011;24609;48.316;16.174;2023-02-10T08:32:56;17.30;;;7.47;;
38859;SDS011;24609;48.316;16.174;2023-02-10T08:35:23;17.05;;;7.70;;
38859;SDS011;24609;48.316;16.174;2023-02-10T08:37:49;13.25;;;7.78;;
38859;SDS011;24609;48.316;16.174;2023-02-10T08:40:15;15.32;;;8.85;;
38859;SDS011;24609;48.316;16.174;2023-02-10T08:42:40;13.85;;;7.88;;
38859;SDS011;24609;48.316;16.174;2023-02-10T08:45:06;19.45;;;8.60;;
38859;SDS011;24609;48.316;16.174;2023-02-10T08:47:33;21.83;;;8.45;;
38859;SDS011;24609;48.316;16.174;2023-02-10T08:49:59;17.08;;;8.32;;
38859;SDS011;24609;48.316;16.174;2023-02-10T08:52:25;17.10;;;8.02;;
38859;SDS011;24609;48.316;16.174;2023-02-10T08:54:50;17.27;;;8.00;;
38859;SDS011;24609;48.316;16.174;2023-02-10T08:57:16;17.73;;;8.18;;
38859;SDS011;24609;48.316;16.174;2023-02-10T08:59:42;22.55;;;9.82;;
38859;SDS011;24609;48.316;16.174;2023-02-10T09:02:09;17.55;;;8.07;;
38859;SDS011;24609;48.316;16.174;2023-02-10T09:04:36;22.58;;;7.90;;
38859;SDS011;24609;48.316;16.174;2023-02-10T09:07:02;16.45;;;7.65;;
38859;SDS011;24609;48.316;16.174;2023-02-10T09:09:28;16.92;;;8.52;;
38859;SDS011;24609;48.316;16.174;2023-02-10T09:11:54;18.27;;;7.55;;
38859;SDS011;24609;48.316;16.174;2023-02-10T09:14:20;17.67;;;9.68;;
38859;SDS011;24609;48.316;16.174;2023-02-10T09:16:46;19.48;;;8.55;;
38859;SDS011;24609;48.316;16.174;2023-02-10T09:19:12;18.80;;;9.98;;
38859;SDS011;24609;48.316;16.174;2023-02-10T09:21:38;20.45;;;9.68;;
38859;SDS011;24609;48.316;16.174;2023-02-10T09:24:03;18.13;;;10.15;;
38859;SDS011;24609;48.316;16.174;2023-02-10T09:26:29;27.13;;;11.10;;
38859;SDS011;24609;48.316;16.174;2023-02-10T09:28:55;22.65;;;11.07;;
38859;SDS011;24609;48.316;16.174;2023-02-10T09:31:22;28.45;;;12.70;;
38859;SDS011;24609;48.316;16.174;2023-02-10T09:33:47;30.25;;;12.40;;
38859;SDS011;24609;48.316;16.174;2023-02-10T09:36:14;27.25;;;12.00;;
38859;SDS011;24609;48.316;16.174;2023-02-10T09:38:41;21.63;;;12.30;;
38859;SDS011;24609;48.316;16.174;2023-02-10T09:44:07;21.65;;;12.27;;
38859;SDS011;24609;48.316;16.174;2023-02-10T09:55:12;28.38;;;14.52;;
38859;SDS011;24609;48.316;16.174;2023-02-10T09:57:42;34.78;;;13.57;;
38859;SDS011;24609;48.316;16.174;2023-02-10T10:00:34;31.35;;;12.18;;
38859;SDS011;24609;48.316;16.174;2023-02-10T10:03:06;30.63;;;14.15;;
38859;SDS011;24609;48.316;16.174;2023-02-10T10:11:21;31.73;;;14.43;;
38859;SDS011;24609;48.316;16.174;2023-02-10T10:13:57;35.15;;;14.90;;
38859;SDS011;24609;48.316;16.174;2023-02-10T10:16:25;32.15;;;14.40;;
38859;SDS011;24609;48.316;16.174;2023-02-10T10:21:39;28.30;;;14.07;;
38859;SDS011;24609;48.316;16.174;2023-02-10T10:24:33;31.02;;;15.02;;
38859;SDS011;24609;48.316;16.174;2023-02-10T10:32:16;33.28;;;13.88;;
38859;SDS011;24609;48.316;16.174;2023-02-10T10:34:51;32.45;;;14.77;;
38859;SDS011;24609;48.316;16.174;2023-02-10T10:37:20;31.38;;;15.45;;
38859;SDS011;24609;48.316;16.174;2023-02-10T10:45:12;29.33;;;13.48;;
38859;SDS011;24609;48.316;16.174;2023-02-10T10:47:43;29.05;;;14.50;;
38859;SDS011;24609;48.316;16.174;2023-02-10T10:50:33;31.20;;;13.55;;
38859;SDS011;24609;48.316;16.174;2023-02-10T10:52:59;31.92;;;15.18;;
38859;SDS011;24609;48.316;16.174;2023-02-10T10:58:23;28.60;;;14.98;;
38859;SDS011;24609;48.316;16.174;2023-02-10T11:00:57;29.10;;;14.05;;
38859;SDS011;24609;48.316;16.174;2023-02-10T11:03:25;33.25;;;15.80;;
38859;SDS011;24609;48.316;16.174;2023-02-10T11:06:10;28.30;;;14.73;;
38859;SDS011;24609;48.316;16.174;2023-02-10T11:08:40;23.73;;;13.27;;
38859;SDS011;24609;48.316;16.174;2023-02-10T11:11:14;35.93;;;15.83;;
38859;SDS011;24609;48.316;16.174;2023-02-10T11:13:49;32.05;;;13.15;;
38859;SDS011;24609;48.316;16.174;2023-02-10T11:16:17;27.75;;;13.32;;
38859;SDS011;24609;48.316;16.174;2023-02-10T11:18:51;27.67;;;13.90;;
38859;SDS011;24609;48.316;16.174;2023-02-10T11:21:19;22.85;;;12.57;;
38859;SDS011;24609;48.316;16.174;2023-02-10T11:23:52;28.08;;;13.65;;
38859;SDS011;24609;48.316;16.174;2023-02-10T11:26:25;31.63;;;14.30;;
38859;SDS011;24609;48.316;16.174;2023-02-10T11:28:52;29.45;;;13.52;;
38859;SDS011;24609;48.316;16.174;2023-02-10T11:33:58;31.83;;;13.73;;
38859;SDS011;24609;48.316;16.174;2023-02-10T11:36:32;32.80;;;15.13;;
38859;SDS011;24609;48.316;16.174;2023-02-10T11:39:03;31.75;;;15.00;;
38859;SDS011;24609;48.316;16.174;2023-02-10T11:41:31;28.20;;;13.40;;
38859;SDS011;24609;48.316;16.174;2023-02-10T11:43:59;32.20;;;14.98;;
38859;SDS011;24609;48.316;16.174;2023-02-10T11:46:26;35.58;;;15.23;;
38859;SDS011;24609;48.316;16.174;2023-02-10T11:49:17;24.25;;;13.02;;
38859;SDS011;24609;48.316;16.174;2023-02-10T11:51:50;32.13;;;13.98;;
38859;SDS011;24609;48.316;16.174;2023-02-10T11:54:17;26.25;;;13.00;;
38859;SDS011;24609;48.316;16.174;2023-02-10T12:10:40;34.15;;;13.68;;
38859;SDS011;24609;48.316;16.174;2023-02-10T12:13:19;23.88;;;12.48;;
38859;SDS011;24609;48.316;16.174;2023-02-10T12:26:49;25.50;;;11.80;;
38859;SDS011;24609;48.316;16.174;2023-02-10T12:37:35;19.45;;;10.38;;
38859;SDS011;24609;48.316;16.174;2023-02-10T12:43:09;25.42;;;10.75;;
38859;SDS011;24609;48.316;16.174;2023-02-10T12:57:13;17.85;;;9.38;;
38859;SDS011;24609;48.316;16.174;2023-02-10T12:59:43;19.73;;;9.63;;
38859;SDS011;24609;48.316;16.174;2023-02-10T13:02:19;23.17;;;10.90;;
38859;SDS011;24609;48.316;16.174;2023-02-10T13:04:53;22.30;;;10.70;;
38859;SDS011;24609;48.316;16.174;2023-02-10T13:07:27;23.30;;;10.68;;
38859;SDS011;24609;48.316;16.174;2023-02-10T13:10:15;21.63;;;10.00;;
38859;SDS011;24609;48.316;16.174;2023-02-10T13:12:48;20.17;;;10.10;;
38859;SDS011;24609;48.316;16.174;2023-02-10T13:15:18;20.60;;;9.75;;
38859;SDS011;24609;48.316;16.174;2023-02-10T13:17:51;25.00;;;9.82;;
38859;SDS011;24609;48.316;16.174;2023-02-10T13:25:54;19.35;;;8.90;;
38859;SDS011;24609;48.316;16.174;2023-02-10T13:34:14;19.40;;;9.50;;
38859;SDS011;24609;48.316;16.174;2023-02-10T13:36:25;17.55;;;8.48;;
38859;SDS011;24609;48.316;16.174;2023-02-10T13:39:03;25.30;;;10.77;;
38859;SDS011;24609;48.316;16.174;2023-02-10T13:41:38;17.67;;;9.00;;
38859;SDS011;24609;48.316;16.174;2023-02-10T13:44:19;18.95;;;9.32;;
38859;SDS011;24609;48.316;16.174;2023-02-10T13:46:54;18.25;;;9.38;;
38859;SDS011;24609;48.316;16.174;2023-02-10T13:49:33;18.05;;;9.60;;
38859;SDS011;24609;48.316;16.174;2023-02-10T13:52:05;17.65;;;9.15;;
38859;SDS011;24609;48.316;16.174;2023-02-10T13:54:52;17.38;;;8.25;;
38859;SDS011;24609;48.316;16.174;2023-02-10T13:57:22;17.35;;;9.40;;
38859;SDS011;24609;48.316;16.174;2023-02-10T13:59:49;22.70;;;9.15;;
38859;SDS011;24609;48.316;16.174;2023-02-10T14:02:22;21.13;;;9.40;;
38859;SDS011;24609;48.316;16.174;2023-02-10T14:04:50;23.30;;;9.70;;
38859;SDS011;24609;48.316;16.174;2023-02-10T14:12:55;20.02;;;9.38;;
38859;SDS011;24609;48.316;16.174;2023-02-10T14:15:27;19.38;;;10.10;;
38859;SDS011;24609;48.316;16.174;2023-02-10T14:18:00;17.98;;;9.13;;
38859;SDS011;24609;48.316;16.174;2023-02-10T14:20:36;23.20;;;10.65;;
38859;SDS011;24609;48.316;16.174;2023-02-10T14:23:04;30.30;;;9.27;;
38859;SDS011;24609;48.316;16.174;2023-02-10T14:25:33;25.95;;;10.63;;
38859;SDS011;24609;48.316;16.174;2023-02-10T14:28:02;22.63;;;9.50;;
38859;SDS011;24609;48.316;16.174;2023-02-10T14:33:14;19.48;;;9.75;;
38859;SDS011;24609;48.316;16.174;2023-02-10T14:35:53;25.08;;;10.30;;
38859;SDS011;24609;48.316;16.174;2023-02-10T14:38:23;20.88;;;10.35;;
38859;SDS011;24609;48.316;16.174;2023-02-10T14:40:57;16.98;;;8.88;;
38859;SDS011;24609;48.316;16.174;2023-02-10T14:43:28;19.65;;;8.65;;
38859;SDS011;24609;48.316;16.174;2023-02-10T14:45:56;24.05;;;10.70;;
38859;SDS011;24609;48.316;16.174;2023-02-10T14:48:23;23.17;;;9.88;;
38859;SDS011;24609;48.316;16.174;2023-02-10T14:50:57;24.05;;;10.63;;
38859;SDS011;24609;48.316;16.174;2023-02-10T14:53:25;20.88;;;9.80;;
38859;SDS011;24609;48.316;16.174;2023-02-10T14:55:55;19.63;;;8.98;;
38859;SDS011;24609;48.316;16.174;2023-02-10T14:58:22;18.90;;;9.38;;
38859;SDS011;24609;48.316;16.174;2023-02-10T15:01:32;19.98;;;8.63;;
38859;SDS011;24609;48.316;16.174;2023-02-10T15:03:47;25.38;;;10.50;;
38859;SDS011;24609;48.316;16.174;2023-02-10T15:06:14;21.55;;;8.65;;
38859;SDS011;24609;48.316;16.174;2023-02-10T15:11:26;16.15;;;8.70;;
38859;SDS011;24609;48.316;16.174;2023-02-10T15:14:36;14.52;;;8.90;;
38859;SDS011;24609;48.316;16.174;2023-02-10T15:17:05;18.25;;;8.52;;
38859;SDS011;24609;48.316;16.174;2023-02-10T15:19:33;21.95;;;9.20;;
38859;SDS011;24609;48.316;16.174;2023-02-10T15:21:59;23.67;;;9.60;;
38859;SDS011;24609;48.316;16.174;2023-02-10T15:24:32;17.98;;;9.63;;
38859;SDS011;24609;48.316;16.174;2023-02-10T15:27:12;15.68;;;8.45;;
38859;SDS011;24609;48.316;16.174;2023-02-10T15:29:40;22.83;;;9.60;;
38859;SDS011;24609;48.316;16.174;2023-02-10T15:32:14;16.83;;;8.32;;
38859;SDS011;24609;48.316;16.174;2023-02-10T15:34:42;18.70;;;8.45;;
38859;SDS011;24609;48.316;16.174;2023-02-10T15:37:18;20.25;;;9.90;;
38859;SDS011;24609;48.316;16.174;2023-02-10T15:39:59;19.23;;;9.57;;
38859;SDS011;24609;48.316;16.174;2023-02-10T15:42:30;19.95;;;7.78;;
38859;SDS011;24609;48.316;16.174;2023-02-10T15:47:44;26.98;;;10.30;;
38859;SDS011;24609;48.316;16.174;2023-02-10T15:50:12;20.77;;;9.30;;
38859;SDS011;24609;48.316;16.174;2023-02-10T15:52:43;23.88;;;9.95;;
38859;SDS011;24609;48.316;16.174;2023-02-10T15:55:19;16.30;;;8.32;;
38859;SDS011;24609;48.316;16.174;2023-02-10T15:57:51;23.73;;;9.50;;
38859;SDS011;24609;48.316;16.174;2023-02-10T16:02:47;24.02;;;10.90;;
38859;SDS011;24609;48.316;16.174;2023-02-10T16:05:13;23.63;;;10.57;;
38859;SDS011;24609;48.316;16.174;2023-02-10T16:07:39;29.67;;;12.05;;
38859;SDS011;24609;48.316;16.174;2023-02-10T16:10:05;17.30;;;9.57;;
38859;SDS011;24609;48.316;16.174;2023-02-10T16:12:38;26.27;;;9.85;;
38859;SDS011;24609;48.316;16.174;2023-02-10T16:15:03;23.70;;;9.73;;
38859;SDS011;24609;48.316;16.174;2023-02-10T16:17:31;17.75;;;9.10;;
38859;SDS011;24609;48.316;16.174;2023-02-10T16:20:03;25.73;;;9.68;;
38859;SDS011;24609;48.316;16.174;2023-02-10T16:22:29;19.45;;;9.35;;
38859;SDS011;24609;48.316;16.174;2023-02-10T16:24:54;21.85;;;9.65;;
38859;SDS011;24609;48.316;16.174;2023-02-10T16:27:20;22.42;;;9.93;;
38859;SDS011;24609;48.316;16.174;2023-02-10T16:29:46;19.70;;;8.50;;
38859;SDS011;24609;48.316;16.174;2023-02-10T16:32:12;21.33;;;8.88;;
38859;SDS011;24609;48.316;16.174;2023-02-10T16:34:38;22.15;;;9.23;;
38859;SDS011;24609;48.316;16.174;2023-02-10T16:37:03;21.67;;;9.00;;
38859;SDS011;24609;48.316;16.174;2023-02-10T16:39:30;25.75;;;11.38;;
38859;SDS011;24609;48.316;16.174;2023-02-10T16:41:55;28.60;;;11.43;;
38859;SDS011;24609;48.316;16.174;2023-02-10T16:44:21;18.13;;;9.95;;
38859;SDS011;24609;48.316;16.174;2023-02-10T16:46:48;23.75;;;11.00;;
38859;SDS011;24609;48.316;16.174;2023-02-10T16:49:15;26.52;;;10.55;;
38859;SDS011;24609;48.316;16.174;2023-02-10T16:51:42;23.25;;;8.70;;
38859;SDS011;24609;48.316;16.174;2023-02-10T16:54:08;25.63;;;9.82;;
38859;SDS011;24609;48.316;16.174;2023-02-10T16:56:38;21.75;;;9.63;;
38859;SDS011;24609;48.316;16.174;2023-02-10T16:59:05;20.23;;;9.48;;